Time;durP1;ratioP1;P1;durP2;ratioP2;P2;SDS_P1;SDS_P2;PMS_P1;PMS_P2;Temp;Humidity;BMP_temperature;BMP_pressure;BME280_temperature;BME280_humidity;BME280_pressure;Samples;Min_cycle;Max_cycle;Signal;HPM_P1;HPM_P2
2023/02/26 00:01:15;;;;;;;14.30;7.80;;;;;;;0.73;100.00;96742.73;106072;1258;71289;-78
2023/02/26 00:03:42;;;;;;;17.50;12.30;;;;;;;0.69;100.00;96741.40;106100;1254;71731;-78
2023/02/26 00:06:08;;;;;;;15.30;9.50;;;;;;;0.63;100.00;96746.88;106052;1259;61320;-78
2023/02/26 00:08:35;;;;;;;20.90;13.30;;;;;;;0.61;100.00;96751.98;105930;1254;169210;-78
2023/02/26 00:11:01;;;;;;;20.90;12.10;;;;;;;0.54;100.00;96754.16;106054;1254;61334;-78
2023/02/26 00:13:28;;;;;;;18.60;10.70;;;;;;;0.43;100.00;96759.08;105999;1254;61308;-78
2023/02/26 00:15:59;;;;;;;28.30;14.60;;;;;;;0.35;100.00;96771.57;106075;1254;72565;-78
2023/02/26 00:18:25;;;;;;;37.70;16.30;;;;;;;0.32;100.00;96771.60;106209;1257;61391;-79
2023/02/26 00:20:52;;;;;;;32.50;16.90;;;;;;;0.24;100.00;96771.23;106079;1254;61160;-78
2023/02/26 00:23:19;;;;;;;34.10;17.90;;;;;;;0.20;100.00;96768.14;106024;1254;73411;-79
2023/02/26 00:25:45;;;;;;;19.10;10.90;;;;;;;0.17;100.00;96784.28;106069;1254;69941;-79
2023/02/26 00:28:12;;;;;;;15.70;8.90;;;;;;;0.17;100.00;96789.72;106052;1254;61425;-78
2023/02/26 00:30:39;;;;;;;16.60;9.60;;;;;;;0.18;100.00;96796.84;106010;1254;61254;-79
2023/02/26 00:33:06;;;;;;;13.30;8.10;;;;;;;0.17;100.00;96795.05;106048;1259;61254;-77
2023/02/26 00:35:33;;;;;;;15.20;8.70;;;;;;;0.18;100.00;96799.14;106039;1257;73491;-79
2023/02/26 00:38:08;;;;;;;17.80;11.60;;;;;;;0.20;100.00;96799.36;106036;1258;70026;-78
2023/02/26 00:40:45;;;;;;;16.30;10.90;;;;;;;0.20;100.00;96800.55;106147;1254;62765;-79
2023/02/26 00:43:17;;;;;;;17.10;10.10;;;;;;;0.22;100.00;96795.61;106049;1255;61251;-79
2023/02/26 00:45:50;;;;;;;13.90;8.00;;;;;;;0.27;100.00;96798.25;106149;1254;61255;-78
2023/02/26 00:48:33;;;;;;;17.50;9.40;;;;;;;0.27;100.00;96793.77;106021;1254;73464;-78
2023/02/26 00:51:22;;;;;;;17.80;9.70;;;;;;;0.30;100.00;96793.96;106059;1254;69819;-78
2023/02/26 00:53:55;;;;;;;18.50;11.00;;;;;;;0.32;100.00;96799.05;106085;1254;72127;-78
2023/02/26 00:56:22;;;;;;;16.00;7.30;;;;;;;0.33;100.00;96806.00;106050;1254;61363;-77
2023/02/26 00:58:48;;;;;;;15.00;8.20;;;;;;;0.34;100.00;96801.16;106038;1258;62063;-78
2023/02/26 01:01:15;;;;;;;15.00;7.70;;;;;;;0.34;100.00;96799.17;106081;1254;61372;-77
2023/02/26 01:03:41;;;;;;;13.10;7.10;;;;;;;0.30;100.00;96797.80;106147;1254;61353;-79
2023/02/26 01:06:12;;;;;;;10.70;6.40;;;;;;;0.30;100.00;96789.00;106052;1254;61257;-77
2023/02/26 01:08:47;;;;;;;13.50;8.10;;;;;;;0.29;100.00;96786.27;106068;1254;61244;-78
2023/02/26 01:11:14;;;;;;;18.90;11.70;;;;;;;0.28;100.00;96777.85;106020;1254;61225;-78
2023/02/26 01:13:40;;;;;;;20.70;10.20;;;;;;;0.27;100.00;96766.80;106124;1258;74613;-78
2023/02/26 01:16:09;;;;;;;18.30;11.20;;;;;;;0.24;100.00;96765.42;106114;1254;69802;-77
2023/02/26 01:19:02;;;;;;;;;;;;;;;0.25;100.00;96768.46;106042;1254;71402;-78
2023/02/26 01:21:33;;;;;;;15.60;9.10;;;;;;;0.22;100.00;96774.50;105789;1258;61228;-77
2023/02/26 01:24:00;;;;;;;18.30;10.40;;;;;;;0.13;100.00;96767.66;105994;1255;61174;-78
2023/02/26 01:26:28;;;;;;;21.00;11.40;;;;;;;0.10;100.00;96762.08;105984;1257;74552;-78
2023/02/26 01:28:54;;;;;;;16.90;9.00;;;;;;;0.09;100.00;96764.92;106055;1259;69941;-78
2023/02/26 01:31:53;;;;;;;16.50;10.80;;;;;;;0.10;100.00;96774.70;106003;1257;72005;-77
2023/02/26 01:34:43;;;;;;;14.30;9.70;;;;;;;0.09;100.00;96786.29;106144;1259;61270;-77
2023/02/26 01:37:25;;;;;;;15.10;8.20;;;;;;;0.08;100.00;96798.27;106170;1257;62347;-78
2023/02/26 01:39:54;;;;;;;14.20;7.70;;;;;;;0.07;100.00;96812.14;105985;1260;73651;-77
2023/02/26 01:42:22;;;;;;;11.30;7.70;;;;;;;0.10;100.00;96821.91;106014;1259;69498;-77
2023/02/26 01:44:52;;;;;;;12.20;7.50;;;;;;;0.15;100.00;96825.07;105929;1260;71467;-77
2023/02/26 01:47:29;;;;;;;19.90;9.30;;;;;;;0.18;100.00;96823.16;106041;1256;61224;-78
2023/02/26 01:49:56;;;;;;;12.50;8.10;;;;;;;0.19;100.00;96824.12;106093;1255;61297;-78
2023/02/26 01:52:48;;;;;;;12.10;8.60;;;;;;;0.23;100.00;96834.51;105927;1261;61243;-78
2023/02/26 01:55:15;;;;;;;12.20;7.60;;;;;;;0.28;100.00;96845.52;105971;1257;70096;-78
2023/02/26 01:57:42;;;;;;;15.10;8.60;;;;;;;0.32;100.00;96853.84;105935;1257;72616;-78
2023/02/26 02:00:09;;;;;;;11.40;7.20;;;;;;;0.32;100.00;96855.17;106021;1254;61134;-78
2023/02/26 02:02:35;;;;;;;13.30;7.90;;;;;;;0.35;100.00;96851.44;106060;1254;63237;-77
2023/02/26 02:05:03;;;;;;;11.80;8.00;;;;;;;0.38;100.00;96844.09;106100;1257;61256;-78
2023/02/26 02:07:30;;;;;;;13.20;8.00;;;;;;;0.42;100.00;96841.00;106279;1257;69935;-78
2023/02/26 02:09:56;;;;;;;12.30;7.10;;;;;;;0.41;100.00;96849.83;106088;1254;62273;-79
2023/02/26 02:12:33;;;;;;;13.00;8.20;;;;;;;0.40;100.00;96845.39;106086;1254;61282;-78
2023/02/26 02:15:04;;;;;;;11.20;7.40;;;;;;;0.35;100.00;96845.11;106075;1253;61276;-78
2023/02/26 02:17:37;;;;;;;11.40;8.00;;;;;;;0.36;100.00;96858.88;106030;1254;74476;-77
2023/02/26 02:20:39;;;;;;;11.30;6.90;;;;;;;0.39;100.00;96876.73;106026;1259;70941;-79
2023/02/26 02:23:21;;;;;;;11.40;6.50;;;;;;;0.43;100.00;96881.84;106032;1254;72647;-79
2023/02/26 02:26:08;;;;;;;10.70;6.30;;;;;;;0.42;100.00;96890.45;106055;1256;61346;-77
2023/02/26 02:28:37;;;;;;;10.10;6.30;;;;;;;0.41;100.00;96897.11;105983;1254;61330;-78
2023/02/26 02:31:20;;;;;;;11.30;7.40;;;;;;;0.44;100.00;96893.33;106067;1259;74555;-78
2023/02/26 02:33:50;;;;;;;17.20;9.00;;;;;;;0.39;100.00;96893.67;106054;1254;70078;-77
2023/02/26 02:36:30;;;;;;;11.50;6.60;;;;;;;0.26;100.00;96902.47;106032;1257;70388;-78
2023/02/26 02:39:00;;;;;;;15.20;9.50;;;;;;;0.28;100.00;96908.96;106022;1257;62059;-77
2023/02/26 02:41:31;;;;;;;11.40;7.30;;;;;;;0.24;100.00;96898.54;106110;1256;61193;-77
2023/02/26 02:44:02;;;;;;;13.00;8.20;;;;;;;0.25;100.00;96892.63;106112;1256;74558;-78
2023/02/26 02:46:32;;;;;;;12.50;7.30;;;;;;;0.23;100.00;96887.05;106135;1254;71033;-78
2023/02/26 02:49:04;;;;;;;9.20;5.30;;;;;;;0.15;100.00;96880.77;106025;1254;72567;-78
2023/02/26 02:51:33;;;;;;;11.80;6.40;;;;;;;0.10;100.00;96868.19;106000;1254;61285;-77
2023/02/26 02:54:07;;;;;;;9.30;6.50;;;;;;;0.01;100.00;96856.21;106034;1259;61170;-78
2023/02/26 02:56:40;;;;;;;10.60;6.90;;;;;;;-0.03;100.00;96843.95;106059;1256;74531;-77
2023/02/26 02:59:36;;;;;;;10.40;7.20;;;;;;;-0.02;100.00;96846.36;106055;1254;71058;-78
2023/02/26 03:02:10;;;;;;;12.70;7.60;;;;;;;-0.14;100.00;96848.66;106023;1254;73807;-77
2023/02/26 03:04:37;;;;;;;8.80;6.00;;;;;;;-0.11;100.00;96855.16;106030;1259;61321;-78
2023/02/26 03:07:03;;;;;;;11.30;6.50;;;;;;;-0.12;100.00;96857.42;106046;1255;61250;-77
2023/02/26 03:09:29;;;;;;;8.40;4.80;;;;;;;-0.15;100.00;96869.27;106025;1254;61276;-77
2023/02/26 03:11:56;;;;;;;12.60;6.20;;;;;;;-0.25;100.00;96885.63;106127;1254;61246;-78
2023/02/26 03:14:22;;;;;;;7.20;5.20;;;;;;;-0.26;100.00;96899.19;106065;1256;61332;-78
2023/02/26 03:17:10;;;;;;;12.10;6.00;;;;;;;-0.29;100.00;96920.38;106206;1260;60338;-78
2023/02/26 03:19:57;;;;;;;7.70;5.40;;;;;;;-0.26;100.00;96934.38;106086;1259;61156;-78
2023/02/26 03:22:43;;;;;;;8.80;5.00;;;;;;;-0.26;100.00;96947.69;106092;1254;74701;-77
2023/02/26 03:25:17;;;;;;;8.20;5.90;;;;;;;-0.23;100.00;96953.08;106112;1257;69931;-77
2023/02/26 03:27:59;;;;;;;9.30;5.60;;;;;;;-0.26;100.00;96957.02;106124;1254;72153;-77
2023/02/26 03:30:31;;;;;;;11.00;6.00;;;;;;;-0.34;100.00;96957.66;106024;1254;61192;-77
2023/02/26 03:33:26;;;;;;;13.80;6.10;;;;;;;-0.39;100.00;96959.59;106101;1254;59306;-77
2023/02/26 03:35:55;;;;;;;9.90;6.60;;;;;;;-0.40;100.00;96958.34;106052;1254;72931;-78
2023/02/26 03:38:43;;;;;;;10.90;6.20;;;;;;;-0.42;100.00;96957.71;106028;1256;62526;-78
2023/02/26 03:41:16;;;;;;;9.10;5.90;;;;;;;-0.41;100.00;96960.40;105985;1254;71992;-78
2023/02/26 03:43:49;;;;;;;11.10;6.70;;;;;;;-0.42;100.00;96953.34;106078;1258;61211;-78
2023/02/26 03:46:18;;;;;;;11.60;7.40;;;;;;;-0.45;100.00;96949.45;105982;1254;61201;-77
2023/02/26 03:48:44;;;;;;;;;;;;;;;-0.41;100.00;96945.38;106066;1254;74695;-78
2023/02/26 03:51:11;;;;;;;13.10;7.70;;;;;;;-0.42;100.00;96943.38;106019;1258;61327;-78
2023/02/26 03:53:58;;;;;;;13.30;7.80;;;;;;;-0.45;100.00;96950.52;106072;1254;71328;-77
2023/02/26 03:56:30;;;;;;;10.60;7.30;;;;;;;-0.42;100.00;96963.83;106051;1256;61233;-77
2023/02/26 03:58:56;;;;;;;14.80;9.40;;;;;;;-0.41;100.00;96979.20;106152;1254;61956;-78
2023/02/26 04:01:25;;;;;;;11.30;7.20;;;;;;;-0.38;100.00;96986.05;106024;1254;62265;-78
2023/02/26 04:04:01;;;;;;;12.40;7.50;;;;;;;-0.38;100.00;96987.88;106032;1254;71143;-77
2023/02/26 04:06:27;;;;;;;14.40;6.60;;;;;;;-0.38;100.00;96991.29;106063;1254;71740;-78
2023/02/26 04:08:53;;;;;;;11.30;6.90;;;;;;;-0.39;100.00;97004.09;105991;1256;61318;-78
2023/02/26 04:11:21;;;;;;;13.90;8.60;;;;;;;-0.34;100.00;97014.36;106010;1259;61583;-78
2023/02/26 04:13:49;;;;;;;13.10;8.30;;;;;;;-0.30;100.00;97016.16;106042;1254;73280;-78
2023/02/26 04:16:16;;;;;;;13.90;7.80;;;;;;;-0.29;100.00;97011.77;106050;1254;61330;-78
2023/02/26 04:18:42;;;;;;;12.00;7.70;;;;;;;-0.27;100.00;97018.48;106001;1258;72522;-78
2023/02/26 04:21:17;;;;;;;11.30;8.00;;;;;;;-0.26;100.00;97025.91;106063;1254;61337;-79
2023/02/26 04:23:43;;;;;;;15.40;7.70;;;;;;;-0.26;100.00;97027.64;106084;1254;61269;-77
2023/02/26 04:26:12;;;;;;;13.10;8.10;;;;;;;-0.29;100.00;97031.19;106049;1254;61355;-78
2023/02/26 04:28:39;;;;;;;14.40;7.00;;;;;;;-0.30;100.00;97030.41;106030;1259;69922;-77
2023/02/26 04:31:05;;;;;;;12.40;7.80;;;;;;;-0.34;100.00;97034.05;106132;1254;72573;-78
2023/02/26 04:33:32;;;;;;;12.20;7.80;;;;;;;-0.35;100.00;97042.99;106031;1257;61368;-78
2023/02/26 04:35:59;;;;;;;11.90;6.90;;;;;;;-0.33;100.00;97043.58;106035;1259;61343;-78
2023/02/26 04:38:25;;;;;;;8.50;6.50;;;;;;;-0.37;100.00;97034.67;106079;1254;73591;-77
2023/02/26 04:40:52;;;;;;;14.90;8.50;;;;;;;-0.41;100.00;97032.64;106066;1254;69987;-77
2023/02/26 04:43:18;;;;;;;9.50;6.30;;;;;;;-0.42;100.00;97039.27;106044;1254;61159;-78
2023/02/26 04:45:46;;;;;;;12.40;7.50;;;;;;;-0.45;100.00;97039.99;106043;1258;62284;-77
2023/02/26 04:48:13;;;;;;;11.40;8.00;;;;;;;-0.54;100.00;97034.16;106212;1258;62949;-78
2023/02/26 04:50:40;;;;;;;13.40;7.10;;;;;;;-0.55;100.00;97027.64;106091;1254;73586;-78
2023/02/26 04:53:06;;;;;;;11.10;7.20;;;;;;;-0.62;100.00;97034.09;106064;1254;61364;-78
2023/02/26 04:55:34;;;;;;;12.10;6.70;;;;;;;-0.64;100.00;97048.48;106051;1257;61371;-77
2023/02/26 04:58:00;;;;;;;12.30;7.10;;;;;;;-0.62;100.00;97057.49;106140;1253;62218;-78
2023/02/26 05:00:27;;;;;;;11.20;7.10;;;;;;;-0.59;100.00;97060.57;106065;1257;61227;-77
2023/02/26 05:02:53;;;;;;;12.30;7.20;;;;;;;-0.56;100.00;97064.67;106088;1254;61279;-78
2023/02/26 05:05:20;;;;;;;11.70;6.20;;;;;;;-0.60;100.00;97063.27;106071;1254;62236;-79
2023/02/26 05:07:46;;;;;;;12.10;6.30;;;;;;;-0.64;100.00;97061.09;106034;1254;61250;-78
2023/02/26 05:10:12;;;;;;;10.20;6.20;;;;;;;-0.61;100.00;97055.88;106148;1258;61279;-76
2023/02/26 05:12:39;;;;;;;11.40;6.00;;;;;;;-0.58;100.00;97055.79;106056;1258;61116;-78
2023/02/26 05:15:06;;;;;;;10.30;5.80;;;;;;;-0.55;100.00;97056.81;106043;1254;61342;-78
2023/02/26 05:17:32;;;;;;;9.10;5.90;;;;;;;-0.56;100.00;97063.40;106010;1254;62201;-78
2023/02/26 05:19:59;;;;;;;9.20;5.30;;;;;;;-0.60;100.00;97058.77;106051;1254;61366;-78
2023/02/26 05:22:25;;;;;;;8.90;5.50;;;;;;;-0.59;100.00;97053.48;106021;1254;61222;-78
2023/02/26 05:24:52;;;;;;;6.30;4.40;;;;;;;-0.58;100.00;97058.63;106043;1257;61227;-78
2023/02/26 05:27:19;;;;;;;8.40;5.00;;;;;;;-0.61;100.00;97046.83;106080;1254;73391;-78
2023/02/26 05:29:45;;;;;;;20.80;5.10;;;;;;;-0.60;100.00;97078.96;106026;1254;61510;-78
2023/02/26 05:32:11;;;;;;;148.50;77.90;;;;;;;-0.60;100.00;97066.67;106035;1254;61221;-78
2023/02/26 05:34:38;;;;;;;196.10;114.30;;;;;;;-0.61;100.00;97090.21;106059;1257;61362;-77
2023/02/26 05:37:04;;;;;;;36.70;27.20;;;;;;;-0.63;100.00;97098.62;106095;1254;61406;-78
2023/02/26 05:39:31;;;;;;;32.00;26.70;;;;;;;-0.66;100.00;97111.61;106055;1254;61221;-78
2023/02/26 05:41:57;;;;;;;32.50;28.70;;;;;;;-0.66;100.00;97114.91;106073;1254;61791;-78
2023/02/26 05:44:24;;;;;;;21.70;18.20;;;;;;;-0.69;100.00;97110.51;106075;1254;61365;-77
2023/02/26 05:46:50;;;;;;;12.50;7.80;;;;;;;-0.73;100.00;97129.61;106050;1253;61303;-76
2023/02/26 05:49:16;;;;;;;15.70;9.10;;;;;;;-0.76;100.00;97124.92;106077;1254;61606;-77
2023/02/26 05:51:43;;;;;;;13.10;7.80;;;;;;;-0.77;100.00;97135.10;106033;1259;61336;-77
2023/02/26 05:54:10;;;;;;;26.50;18.50;;;;;;;-0.77;100.00;97143.67;106092;1257;61292;-77
2023/02/26 05:56:36;;;;;;;12.90;7.60;;;;;;;-0.76;100.00;97152.33;106312;1254;61446;-77
2023/02/26 05:59:03;;;;;;;16.30;11.90;;;;;;;-0.73;100.00;97161.45;106295;1254;61965;-76
2023/02/26 06:01:29;;;;;;;14.00;8.60;;;;;;;-0.75;100.00;97166.77;106444;1257;61244;-78
2023/02/26 06:03:56;;;;;;;14.20;10.10;;;;;;;-0.74;100.00;97183.98;106343;1254;61246;-79
2023/02/26 06:06:24;;;;;;;17.30;12.60;;;;;;;-0.69;100.00;97190.20;106083;1254;61845;-78
2023/02/26 06:08:50;;;;;;;12.80;7.10;;;;;;;-0.65;100.00;97198.90;106067;1254;73741;-77
2023/02/26 06:11:17;;;;;;;25.10;18.20;;;;;;;-0.59;100.00;97192.92;106046;1254;61361;-78
2023/02/26 06:13:43;;;;;;;28.40;19.40;;;;;;;-0.55;100.00;97204.77;106031;1254;61285;-78
2023/02/26 06:16:09;;;;;;;19.50;11.70;;;;;;;-0.53;100.00;97203.99;106045;1254;61288;-78
2023/02/26 06:18:36;;;;;;;13.90;10.10;;;;;;;-0.56;100.00;97214.81;106044;1254;61323;-77
2023/02/26 06:21:03;;;;;;;16.00;8.10;;;;;;;-0.59;100.00;97222.33;106050;1259;61337;-78
2023/02/26 06:23:29;;;;;;;22.10;15.80;;;;;;;-0.58;100.00;97227.72;105993;1259;61389;-78
2023/02/26 06:25:55;;;;;;;23.60;17.70;;;;;;;-0.63;100.00;97226.10;106076;1254;61357;-78
2023/02/26 06:28:23;;;;;;;25.40;20.50;;;;;;;-0.60;100.00;97227.66;106050;1254;61272;-78
2023/02/26 06:30:51;;;;;;;38.20;29.10;;;;;;;-0.64;100.00;97224.19;106087;1254;69555;-78
2023/02/26 06:33:18;;;;;;;34.50;22.20;;;;;;;-0.68;100.00;97220.57;106032;1254;71439;-78
2023/02/26 06:35:45;;;;;;;56.60;42.10;;;;;;;-0.75;100.00;97228.55;105992;1258;59232;-77
2023/02/26 06:38:11;;;;;;;58.00;33.10;;;;;;;-0.77;100.00;97228.48;106106;1259;61259;-78
2023/02/26 06:40:38;;;;;;;89.70;48.80;;;;;;;-0.72;100.00;97230.70;106153;1257;73435;-77
2023/02/26 06:43:04;;;;;;;69.20;39.80;;;;;;;-0.65;100.00;97230.67;106078;1254;61185;-77
2023/02/26 06:45:31;;;;;;;72.00;41.10;;;;;;;-0.57;100.00;97233.09;106035;1254;61305;-79
2023/02/26 06:47:57;;;;;;;173.30;113.70;;;;;;;-0.55;100.00;97235.92;106098;1254;62229;-78
2023/02/26 06:50:24;;;;;;;164.50;101.30;;;;;;;-0.59;100.00;97238.27;106057;1254;61442;-78
2023/02/26 06:52:50;;;;;;;128.10;69.70;;;;;;;-0.57;100.00;97242.06;106079;1254;61195;-77
2023/02/26 06:55:16;;;;;;;59.60;36.60;;;;;;;-0.53;100.00;97248.75;106018;1254;61343;-79
2023/02/26 06:57:43;;;;;;;123.90;78.90;;;;;;;-0.54;100.00;97250.20;106104;1254;61294;-78
2023/02/26 07:00:10;;;;;;;67.50;45.00;;;;;;;-0.51;100.00;97249.39;106136;1254;61406;-78
2023/02/26 07:02:36;;;;;;;44.90;26.80;;;;;;;-0.43;100.00;97253.42;106058;1259;61250;-79
2023/02/26 07:05:03;;;;;;;77.50;49.50;;;;;;;-0.44;100.00;97262.45;106036;1254;61333;-78
2023/02/26 07:07:29;;;;;;;138.00;72.60;;;;;;;-0.49;100.00;97262.05;106049;1254;61291;-78
2023/02/26 07:09:55;;;;;;;152.40;90.70;;;;;;;-0.52;100.00;97261.64;105996;1254;61355;-78
2023/02/26 07:12:22;;;;;;;83.70;48.30;;;;;;;-0.48;100.00;97266.74;105899;1259;61407;-78
2023/02/26 07:14:49;;;;;;;70.60;38.50;;;;;;;-0.49;100.00;97276.09;106029;1254;61262;-78
2023/02/26 07:17:21;;;;;;;39.50;23.70;;;;;;;-0.50;100.00;97276.20;106020;1254;61371;-78
2023/02/26 07:19:51;;;;;;;59.30;34.50;;;;;;;-0.53;100.00;97284.25;106002;1257;69906;-79
2023/02/26 07:22:18;;;;;;;38.80;24.10;;;;;;;-0.62;100.00;97290.77;106010;1256;72548;-76
2023/02/26 07:24:44;;;;;;;44.50;24.30;;;;;;;-0.63;100.00;97296.19;106090;1258;61215;-76
2023/02/26 07:27:11;;;;;;;26.10;16.00;;;;;;;-0.43;100.00;97299.69;106044;1258;61309;-77
2023/02/26 07:29:37;;;;;;;27.90;17.40;;;;;;;-0.20;100.00;97299.73;106040;1254;61301;-76
2023/02/26 07:32:04;;;;;;;36.20;22.40;;;;;;;-0.14;100.00;97306.97;106014;1254;61381;-76
2023/02/26 07:34:30;;;;;;;42.80;26.70;;;;;;;-0.06;100.00;97315.97;106010;1257;61353;-77
2023/02/26 07:37:00;;;;;;;34.80;23.60;;;;;;;0.65;100.00;97326.49;105941;1259;61231;-77
2023/02/26 07:39:26;;;;;;;35.50;21.80;;;;;;;1.68;96.38;97328.80;106241;1257;61203;-77
2023/02/26 07:41:53;;;;;;;44.90;30.70;;;;;;;1.86;93.42;97329.39;106022;1259;62402;-77
2023/02/26 07:44:20;;;;;;;20.00;14.10;;;;;;;1.96;94.34;97333.48;106038;1254;71171;-78
2023/02/26 07:46:46;;;;;;;27.40;16.50;;;;;;;2.29;91.80;97337.81;106045;1254;61327;-78
2023/02/26 07:49:12;;;;;;;23.50;11.30;;;;;;;2.32;93.95;97339.84;106036;1254;61285;-77
2023/02/26 07:51:39;;;;;;;28.10;18.90;;;;;;;2.05;93.76;97347.41;106082;1254;61310;-77
2023/02/26 07:54:06;;;;;;;27.70;15.50;;;;;;;1.70;92.82;97361.63;106015;1254;74437;-77
2023/02/26 07:56:32;;;;;;;18.40;10.50;;;;;;;1.47;92.66;97365.42;106075;1259;62107;-77
2023/02/26 07:58:58;;;;;;;21.50;12.90;;;;;;;1.20;93.50;97370.48;106048;1257;61186;-78
2023/02/26 08:01:25;;;;;;;9.60;6.10;;;;;;;1.24;94.98;97370.09;106091;1254;61267;-77
2023/02/26 08:03:51;;;;;;;27.10;14.50;;;;;;;0.95;94.32;97370.38;106082;1254;61361;-77
2023/02/26 08:06:18;;;;;;;41.10;24.80;;;;;;;0.65;94.68;97368.27;105955;1254;61321;-77
2023/02/26 08:08:44;;;;;;;25.00;13.40;;;;;;;0.49;95.68;97366.96;105958;1254;61291;-77
2023/02/26 08:11:10;;;;;;;21.60;12.10;;;;;;;0.62;96.63;97366.88;106023;1254;61239;-77
2023/02/26 08:13:37;;;;;;;12.50;7.50;;;;;;;0.67;97.38;97367.31;106086;1254;61282;-77
2023/02/26 08:16:03;;;;;;;16.10;7.70;;;;;;;0.80;97.93;97367.66;106071;1254;61224;-77
2023/02/26 08:18:30;;;;;;;9.80;6.00;;;;;;;0.93;97.89;97366.71;106040;1258;61245;-77
2023/02/26 08:20:57;;;;;;;12.50;6.00;;;;;;;0.97;97.87;97372.23;106075;1258;61251;-76
2023/02/26 08:23:23;;;;;;;10.80;5.80;;;;;;;0.92;97.90;97379.60;105961;1255;61346;-77
2023/02/26 08:25:49;;;;;;;16.20;7.20;;;;;;;0.75;98.14;97388.98;106091;1254;61275;-76
2023/02/26 08:28:16;;;;;;;14.70;9.20;;;;;;;0.52;98.72;97392.60;106070;1258;61215;-76
2023/02/26 08:30:42;;;;;;;21.20;11.60;;;;;;;0.43;99.41;97395.28;106040;1254;61353;-77
2023/02/26 08:33:09;;;;;;;19.80;12.00;;;;;;;0.25;100.00;97399.42;106032;1254;61360;-77
2023/02/26 08:35:35;;;;;;;24.20;13.00;;;;;;;-0.12;100.00;97407.63;106073;1259;61349;-77
2023/02/26 08:38:01;;;;;;;19.00;10.50;;;;;;;-0.29;100.00;97403.34;106072;1254;62467;-77
2023/02/26 08:40:28;;;;;;;22.30;10.20;;;;;;;-0.51;100.00;97408.02;106041;1254;62888;-79
2023/02/26 08:42:54;;;;;;;19.20;10.20;;;;;;;-0.52;100.00;97412.40;106155;1259;61424;-78
2023/02/26 08:45:20;;;;;;;22.70;10.40;;;;;;;-0.51;100.00;97417.06;106081;1259;61262;-78
2023/02/26 08:47:47;;;;;;;13.70;6.60;;;;;;;-0.54;100.00;97424.80;106075;1258;61455;-79
2023/02/26 08:50:13;;;;;;;50.90;27.30;;;;;;;-0.49;100.00;97428.14;106069;1254;61293;-78
2023/02/26 08:52:40;;;;;;;28.60;15.70;;;;;;;-0.52;100.00;97427.67;106020;1259;61205;-78
2023/02/26 08:55:06;;;;;;;92.90;49.10;;;;;;;-0.48;100.00;97431.33;106075;1259;61345;-78
2023/02/26 08:57:33;;;;;;;90.40;50.40;;;;;;;-0.47;100.00;97433.06;106034;1258;61206;-78
2023/02/26 08:59:59;;;;;;;116.00;62.90;;;;;;;-0.34;100.00;97434.63;106041;1254;62202;-78
2023/02/26 09:02:26;;;;;;;103.80;52.60;;;;;;;-0.26;100.00;97446.20;106071;1254;61367;-78
2023/02/26 09:04:52;;;;;;;27.30;15.90;;;;;;;0.02;100.00;97453.23;106076;1254;61874;-78
2023/02/26 09:07:19;;;;;;;44.40;25.90;;;;;;;0.33;100.00;97461.29;106087;1254;62378;-79
2023/02/26 09:09:45;;;;;;;21.90;12.90;;;;;;;0.60;100.00;97460.10;106040;1258;61279;-78
2023/02/26 09:12:12;;;;;;;20.80;12.00;;;;;;;0.96;100.00;97456.75;106064;1254;61303;-79
2023/02/26 09:14:38;;;;;;;26.90;16.60;;;;;;;1.13;99.69;97459.04;106130;1260;61260;-77
2023/02/26 09:17:05;;;;;;;25.00;12.70;;;;;;;1.29;99.29;97459.57;106044;1258;61371;-78
2023/02/26 09:19:31;;;;;;;14.80;9.90;;;;;;;1.54;96.82;97468.38;106083;1254;61343;-78
2023/02/26 09:21:57;;;;;;;47.10;25.40;;;;;;;1.59;95.00;97464.70;106089;1253;62041;-78
2023/02/26 09:24:24;;;;;;;60.20;36.60;;;;;;;1.61;94.98;97468.90;106119;1259;61339;-79
2023/02/26 09:26:50;;;;;;;16.50;9.30;;;;;;;1.65;95.17;97464.52;106060;1254;61176;-78
2023/02/26 09:29:17;;;;;;;29.50;16.10;;;;;;;1.77;96.80;97464.56;106053;1259;61151;-78
2023/02/26 09:31:43;;;;;;;27.20;18.60;;;;;;;1.78;94.20;97467.05;106272;1259;61239;-78
2023/02/26 09:34:09;;;;;;;43.00;23.80;;;;;;;1.75;92.86;97468.27;106049;1259;61381;-79
2023/02/26 09:36:36;;;;;;;48.30;27.30;;;;;;;1.80;94.14;97468.33;106001;1259;61333;-78
2023/02/26 09:39:03;;;;;;;40.50;25.60;;;;;;;1.73;92.86;97471.86;106085;1259;61349;-78
2023/02/26 09:41:31;;;;;;;28.60;19.30;;;;;;;1.80;94.95;97471.58;106015;1259;60711;-78
2023/02/26 09:44:18;;;;;;;21.10;15.00;;;;;;;1.80;93.46;97479.38;106040;1254;61416;-78
2023/02/26 09:46:50;;;;;;;46.80;28.80;;;;;;;1.86;94.01;97482.86;106054;1259;71418;-77
2023/02/26 09:49:42;;;;;;;20.30;12.40;;;;;;;1.82;93.28;97486.96;106011;1254;73292;-78
2023/02/26 09:52:35;;;;;;;15.40;8.50;;;;;;;1.86;95.04;97481.38;106082;1254;63163;-78
2023/02/26 09:55:15;;;;;;;31.50;15.10;;;;;;;2.05;96.00;97483.09;105983;1254;61218;-78
2023/02/26 09:57:43;;;;;;;15.20;7.40;;;;;;;2.06;93.36;97484.64;106033;1256;74736;-79
2023/02/26 10:00:18;;;;;;;33.50;16.60;;;;;;;2.11;93.44;97480.00;106100;1259;71119;-78
2023/02/26 10:03:02;;;;;;;10.30;6.10;;;;;;;2.15;92.51;97481.72;106029;1267;71365;-77
2023/02/26 10:05:40;;;;;;;9.60;5.50;;;;;;;2.24;91.68;97478.85;106061;1254;61237;-79
2023/02/26 10:08:14;;;;;;;9.60;6.00;;;;;;;2.33;91.94;97479.97;106184;1254;63090;-78
2023/02/26 10:11:02;;;;;;;20.20;10.20;;;;;;;2.28;88.15;97485.50;106009;1259;73413;-78
2023/02/26 10:13:42;;;;;;;37.80;17.90;;;;;;;2.10;86.93;97484.42;106088;1254;69413;-77
2023/02/26 10:16:16;;;;;;;26.70;12.30;;;;;;;1.91;86.15;97489.13;106015;1254;71969;-79
2023/02/26 10:18:46;;;;;;;40.80;18.50;;;;;;;2.06;89.02;97495.65;106006;1259;61334;-78
2023/02/26 10:21:22;;;;;;;17.10;8.10;;;;;;;2.24;89.05;97498.69;105965;1259;61241;-79
2023/02/26 10:23:52;;;;;;;102.30;59.10;;;;;;;2.27;86.28;97502.73;106134;1255;74575;-78
2023/02/26 10:26:21;;;;;;;68.80;34.90;;;;;;;2.05;84.02;97513.33;105950;1254;71066;-79
2023/02/26 10:28:58;;;;;;;23.80;12.70;;;;;;;1.76;82.20;97515.58;106412;1254;72594;-77
2023/02/26 10:31:35;;;;;;;57.80;28.70;;;;;;;1.78;83.72;97515.14;106052;1254;61294;-79
2023/02/26 10:34:12;;;;;;;225.50;96.80;;;;;;;1.73;83.01;97512.80;106043;1259;61151;-78
2023/02/26 10:36:57;;;;;;;37.30;18.70;;;;;;;1.74;82.30;97513.88;106061;1259;74558;-77
2023/02/26 10:39:36;;;;;;;86.90;46.70;;;;;;;2.12;84.92;97515.63;106020;1254;71073;-77
2023/02/26 10:42:08;;;;;;;10.40;6.10;;;;;;;2.29;85.58;97523.78;106059;1259;72562;-77
2023/02/26 10:44:48;;;;;;;22.00;10.30;;;;;;;2.21;84.83;97530.49;106023;1254;61321;-77
2023/02/26 10:47:35;;;;;;;46.50;23.20;;;;;;;1.80;88.39;97537.52;106029;1254;61264;-77
2023/02/26 10:50:08;;;;;;;47.90;24.70;;;;;;;1.24;92.83;97544.23;105924;1254;73346;-78
2023/02/26 10:52:35;;;;;;;20.70;10.60;;;;;;;0.91;95.19;97557.31;105952;1254;70062;-77
2023/02/26 10:55:04;;;;;;;24.60;13.80;;;;;;;0.74;97.86;97552.56;105986;1259;61349;-77
2023/02/26 10:57:33;;;;;;;34.80;18.60;;;;;;;0.71;98.06;97558.23;106024;1254;62039;-77
2023/02/26 11:00:00;;;;;;;;;;;;;;;0.73;99.80;97566.20;106113;1259;61247;-78
2023/02/26 11:02:42;;;;;;;35.70;20.90;;;;;;;0.87;100.00;97569.04;106056;1256;73981;-77
2023/02/26 11:05:15;;;;;;;58.90;32.80;;;;;;;0.95;99.98;97574.54;106080;1259;70800;-77
2023/02/26 11:07:42;;;;;;;18.00;10.50;;;;;;;1.09;100.00;97584.02;106129;1254;73723;-77
2023/02/26 11:10:14;;;;;;;19.50;12.20;;;;;;;1.14;100.00;97589.09;106019;1254;61359;-79
2023/02/26 11:12:41;;;;;;;12.10;7.30;;;;;;;1.19;100.00;97587.73;106082;1254;61218;-78
2023/02/26 11:15:18;;;;;;;10.80;6.10;;;;;;;1.53;100.00;97592.86;106061;1254;62187;-78
2023/02/26 11:17:47;;;;;;;18.00;7.60;;;;;;;1.74;99.92;97591.52;106064;1254;70964;-78
2023/02/26 11:20:19;;;;;;;9.50;4.80;;;;;;;1.68;99.01;97591.11;106208;1254;72573;-80
2023/02/26 11:22:48;;;;;;;35.40;15.60;;;;;;;1.43;98.56;97593.95;106037;1254;61144;-78
2023/02/26 11:25:17;;;;;;;28.50;11.50;;;;;;;0.99;98.51;97594.02;106168;1254;61273;-79